Ada, Ohio
Current Conditions -  °F | °C
As of 5:53 PM on Monday 20 Oct 2014 (Local Time) from KAOH Reporting Station
Haze Haze  
Wind Chill: 55°   Ceiling: 3200
Heat Index: 55°   Visibility: 6mi
Dew Point: 52°   Wind: 6mph
Humidity: 89%   Direction: 190°S
Pressure: 29.84"   Gusts: NA
Location:  40.78°N, 83.82°W
Report Text: KAOH 202153Z AUTO 19005KT 6SM BR OVC032 13/11 A2984 RMK AO2 SLP105 T01280111
Loading
Personal Weather Stations






























Interactive Weather Map
Tropical Storm Tracking
New forecast layout! Learn more

10-Day Weather Forecast

Advertisements
Track Severe Weather on mobile